createdAt,value
2023-01-07T00:01:29.101Z,11.37
2023-01-07T00:03:57.715Z,15.50
2023-01-07T00:06:30.399Z,14.82
2023-01-07T00:08:58.261Z,15.10
2023-01-07T00:11:31.598Z,15.67
2023-01-07T00:14:00.222Z,13.37
2023-01-07T00:16:29.688Z,11.43
2023-01-07T00:18:59.108Z,9.93
2023-01-07T00:21:27.603Z,13.23
2023-01-07T00:23:56.788Z,12.67
2023-01-07T00:26:25.691Z,9.13
2023-01-07T00:28:53.775Z,11.75
2023-01-07T00:31:26.408Z,14.68
2023-01-07T00:33:59.439Z,12.47
2023-01-07T00:36:30.691Z,10.97
2023-01-07T00:39:00.643Z,12.23
2023-01-07T00:41:28.461Z,12.37
2023-01-07T00:43:56.354Z,12.00
2023-01-07T00:46:24.019Z,12.60
2023-01-07T00:48:51.513Z,11.83
2023-01-07T00:51:19.632Z,15.13
2023-01-07T00:53:46.966Z,11.97
2023-01-07T00:56:16.315Z,11.50
2023-01-07T00:58:43.422Z,12.63
2023-01-07T01:01:12.054Z,12.03
2023-01-07T01:03:39.431Z,11.05
2023-01-07T01:06:11.181Z,13.27
2023-01-07T01:08:38.183Z,10.47
2023-01-07T01:11:10.180Z,11.30
2023-01-07T01:13:37.762Z,16.73
2023-01-07T01:16:11.182Z,14.17
2023-01-07T01:18:38.899Z,14.60
2023-01-07T01:21:08.381Z,16.03
2023-01-07T01:26:11.381Z,9.90
2023-01-07T01:28:39.029Z,10.50
2023-01-07T01:31:08.378Z,11.93
2023-01-07T01:33:36.145Z,8.43
2023-01-07T01:36:05.657Z,9.60
2023-01-07T01:40:59.804Z,10.27
2023-01-07T01:43:29.306Z,10.13
2023-01-07T01:45:57.390Z,10.87
2023-01-07T01:48:24.683Z,12.73
2023-01-07T01:50:52.490Z,11.80
2023-01-07T01:53:28.826Z,10.60
2023-01-07T01:56:00.970Z,10.57
2023-01-07T01:58:52.178Z,10.53
2023-01-07T02:01:19.250Z,10.77
2023-01-07T02:03:48.948Z,14.33
2023-01-07T02:06:23.166Z,12.93
2023-01-07T02:08:50.803Z,13.53
2023-01-07T02:11:26.411Z,13.93
2023-01-07T02:14:20.719Z,15.33
2023-01-07T02:16:59.639Z,14.77
2023-01-07T02:19:26.755Z,14.50
2023-01-07T02:22:27.717Z,12.73
2023-01-07T02:25:03.625Z,14.20
2023-01-07T02:27:52.185Z,13.07
2023-01-07T02:30:56.921Z,14.80
2023-01-07T02:33:48.225Z,12.23
2023-01-07T02:36:34.030Z,16.13
2023-01-07T02:39:23.921Z,13.57
2023-01-07T02:42:13.843Z,12.47
2023-01-07T02:44:59.627Z,14.87
2023-01-07T02:47:32.070Z,13.13
2023-01-07T02:49:59.029Z,13.57
2023-01-07T02:52:29.492Z,14.43
2023-01-07T02:55:10.663Z,15.50
2023-01-07T03:01:22.901Z,14.07
2023-01-07T03:03:56.044Z,14.77
2023-01-07T03:06:35.193Z,14.10
2023-01-07T03:09:37.897Z,13.33
2023-01-07T03:12:24.671Z,13.23
2023-01-07T03:14:59.183Z,13.57
2023-01-07T03:17:32.663Z,13.37
2023-01-07T03:20:01.542Z,15.70
2023-01-07T03:22:32.045Z,11.88
2023-01-07T03:25:00.038Z,10.93
2023-01-07T03:27:29.164Z,10.43
2023-01-07T03:29:56.985Z,13.03
2023-01-07T03:32:32.465Z,12.37
2023-01-07T03:34:59.773Z,12.60
2023-01-07T03:37:27.836Z,13.83
2023-01-07T03:39:55.429Z,14.10
2023-01-07T03:42:40.515Z,15.43
2023-01-07T03:45:14.618Z,14.97
2023-01-07T03:47:45.701Z,13.43
2023-01-07T03:50:13.637Z,15.57
2023-01-07T03:52:40.585Z,16.17
2023-01-07T03:55:08.232Z,15.73
2023-01-07T03:57:35.143Z,18.97
2023-01-07T04:00:03.650Z,18.80
2023-01-07T04:02:30.553Z,15.13
2023-01-07T04:04:57.737Z,16.03
2023-01-07T04:07:24.656Z,19.23
2023-01-07T04:09:51.796Z,17.73
2023-01-07T04:12:18.772Z,17.47
2023-01-07T04:14:46.121Z,19.08
2023-01-07T04:17:13.029Z,25.17
2023-01-07T04:19:40.237Z,21.97
2023-01-07T04:22:10.321Z,23.40
2023-01-07T04:24:37.821Z,23.93
2023-01-07T04:27:04.963Z,23.67
2023-01-07T04:29:32.249Z,20.43
2023-01-07T04:31:59.214Z,20.63
2023-01-07T04:34:26.395Z,18.47
2023-01-07T04:36:53.256Z,21.58
2023-01-07T04:39:20.399Z,20.08
2023-01-07T04:41:47.272Z,18.57
2023-01-07T04:44:15.586Z,20.63
2023-01-07T04:46:42.457Z,17.73
2023-01-07T04:49:10.059Z,20.63
2023-01-07T04:51:37.007Z,20.77
2023-01-07T04:54:04.252Z,19.87
2023-01-07T04:56:31.209Z,22.87
2023-01-07T04:58:58.423Z,24.87
2023-01-07T05:01:25.669Z,25.60
2023-01-07T05:03:52.964Z,26.47
2023-01-07T05:06:19.868Z,31.23
2023-01-07T05:08:47.092Z,20.80
2023-01-07T05:11:15.627Z,26.25
2023-01-07T05:13:42.771Z,49.33
2023-01-07T05:16:09.668Z,64.93
2023-01-07T05:18:36.880Z,62.87
2023-01-07T05:21:03.850Z,46.87
2023-01-07T05:23:31.089Z,42.30
2023-01-07T05:25:58.072Z,40.17
2023-01-07T05:28:25.239Z,33.07
2023-01-07T05:30:52.108Z,31.07
2023-01-07T05:33:19.323Z,33.00
2023-01-07T05:35:49.058Z,21.57
2023-01-07T05:38:16.296Z,34.00
2023-01-07T05:40:43.259Z,39.83
2023-01-07T05:43:10.450Z,26.23
2023-01-07T05:45:37.448Z,26.53
2023-01-07T05:48:04.921Z,24.57
2023-01-07T05:50:31.876Z,16.93
2023-01-07T05:52:59.043Z,52.87
2023-01-07T05:55:25.926Z,38.20
2023-01-07T05:57:53.079Z,39.50
2023-01-07T06:00:20.016Z,45.70
2023-01-07T06:02:47.473Z,38.67
2023-01-07T06:05:14.492Z,31.77
2023-01-07T06:07:41.675Z,24.80
2023-01-07T06:10:08.749Z,29.53
2023-01-07T06:12:35.998Z,26.83
2023-01-07T06:15:02.991Z,28.83
2023-01-07T06:17:30.192Z,29.00
2023-01-07T06:19:57.061Z,39.10
2023-01-07T06:22:24.431Z,22.67
2023-01-07T06:24:51.410Z,30.60
2023-01-07T06:27:18.637Z,39.43
2023-01-07T06:29:45.513Z,31.57
2023-01-07T06:32:12.727Z,36.17
2023-01-07T06:34:39.666Z,46.90
2023-01-07T06:37:06.845Z,32.20
2023-01-07T06:39:33.697Z,36.40
2023-01-07T06:42:00.901Z,47.33
2023-01-07T06:44:27.818Z,40.03
2023-01-07T06:46:55.316Z,27.63
2023-01-07T06:49:22.184Z,29.67
2023-01-07T06:51:49.394Z,70.70
2023-01-07T06:54:16.268Z,56.63
2023-01-07T06:56:43.576Z,61.53
2023-01-07T06:59:10.968Z,51.60
2023-01-07T07:01:38.489Z,40.23
2023-01-07T07:04:05.520Z,54.17
2023-01-07T07:06:33.075Z,51.43
2023-01-07T07:08:59.904Z,77.57
2023-01-07T07:11:27.168Z,90.87
2023-01-07T07:13:54.106Z,99.13
2023-01-07T07:16:22.677Z,60.57
2023-01-07T07:18:50.244Z,55.90
2023-01-07T07:21:17.446Z,55.73
2023-01-07T07:23:44.378Z,62.30
2023-01-07T07:26:12.049Z,80.73
2023-01-07T07:28:39.469Z,76.33
2023-01-07T07:31:06.715Z,87.87
2023-01-07T07:33:33.631Z,105.93
2023-01-07T07:36:00.920Z,103.97
2023-01-07T07:38:28.110Z,53.77
2023-01-07T07:40:56.878Z,54.40
2023-01-07T07:43:23.842Z,51.22
2023-01-07T07:45:51.061Z,55.07
2023-01-07T07:48:17.968Z,78.37
2023-01-07T07:50:45.174Z,73.07
2023-01-07T07:53:12.111Z,55.70
2023-01-07T07:55:40.050Z,44.33
2023-01-07T07:58:07.138Z,44.97
2023-01-07T08:00:34.314Z,62.90
2023-01-07T08:03:01.444Z,85.43
2023-01-07T08:05:29.288Z,122.37
2023-01-07T08:07:56.863Z,140.68
2023-01-07T08:10:27.216Z,194.67
2023-01-07T08:12:54.156Z,72.97
2023-01-07T08:15:21.483Z,62.50
2023-01-07T08:17:48.496Z,42.85
2023-01-07T08:20:15.783Z,50.00
2023-01-07T08:22:42.703Z,108.43
2023-01-07T08:25:10.486Z,110.72
2023-01-07T08:27:37.324Z,66.10
2023-01-07T08:30:04.895Z,63.97
2023-01-07T08:32:31.776Z,89.05
2023-01-07T08:34:59.055Z,59.35
2023-01-07T08:37:26.001Z,61.05
2023-01-07T08:39:53.235Z,63.28
2023-01-07T08:42:20.183Z,54.88
2023-01-07T08:44:47.387Z,57.38
2023-01-07T08:47:14.745Z,47.60
2023-01-07T08:49:41.973Z,47.08
2023-01-07T08:52:08.805Z,39.83
2023-01-07T08:54:36.004Z,40.50
2023-01-07T08:57:02.899Z,38.95
2023-01-07T08:59:30.184Z,47.28
2023-01-07T09:01:57.169Z,34.28
2023-01-07T09:04:24.412Z,28.33
2023-01-07T09:06:51.369Z,33.90
2023-01-07T09:09:18.604Z,34.10
2023-01-07T09:11:45.486Z,35.92
2023-01-07T09:14:12.736Z,29.83
2023-01-07T09:16:39.656Z,102.88
2023-01-07T09:19:06.873Z,28.27
2023-01-07T09:21:33.759Z,26.42
2023-01-07T09:24:00.994Z,22.73
2023-01-07T09:26:27.893Z,22.70
2023-01-07T09:28:55.073Z,24.33
2023-01-07T09:31:22.678Z,21.10
2023-01-07T09:33:51.579Z,21.08
2023-01-07T09:36:18.463Z,21.75
2023-01-07T09:38:45.652Z,23.40
2023-01-07T09:41:36.602Z,18.10
2023-01-07T09:44:35.167Z,20.60
2023-01-07T09:47:03.644Z,17.23
2023-01-07T09:49:33.251Z,17.02
2023-01-07T09:54:39.633Z,49.35
2023-01-07T09:57:08.941Z,50.50
2023-01-07T09:59:36.191Z,32.20
2023-01-07T10:02:36.252Z,23.33
2023-01-07T10:05:27.187Z,28.35
2023-01-07T10:08:31.482Z,24.95
2023-01-07T10:13:48.969Z,36.97
2023-01-07T10:16:28.458Z,39.45
2023-01-07T10:21:38.774Z,35.38
2023-01-07T10:24:16.084Z,44.17
2023-01-07T10:26:48.412Z,35.78
2023-01-07T10:29:53.936Z,55.00
2023-01-07T10:32:24.452Z,39.83
2023-01-07T10:34:55.762Z,47.45
2023-01-07T10:37:43.652Z,51.20
2023-01-07T10:40:32.393Z,39.45
2023-01-07T10:43:36.460Z,31.35
2023-01-07T10:46:24.773Z,34.65
2023-01-07T10:48:57.846Z,32.17
2023-01-07T10:51:43.517Z,29.63
2023-01-07T10:54:47.100Z,30.38
2023-01-07T10:57:21.963Z,35.50
2023-01-07T10:59:56.364Z,38.65
2023-01-07T11:02:28.570Z,33.30
2023-01-07T11:04:57.150Z,39.03
2023-01-07T11:08:02.427Z,50.72
2023-01-07T11:10:33.829Z,49.85
2023-01-07T11:13:06.803Z,54.75
2023-01-07T11:15:50.100Z,48.67
2023-01-07T11:18:21.992Z,52.70
2023-01-07T11:20:50.222Z,56.25
2023-01-07T11:23:26.431Z,42.13
2023-01-07T11:25:55.477Z,41.38
2023-01-07T11:28:27.299Z,42.50
2023-01-07T11:30:59.989Z,45.97
2023-01-07T11:34:02.206Z,40.10
2023-01-07T11:36:42.470Z,41.28
2023-01-07T11:39:12.055Z,37.10
2023-01-07T11:41:53.046Z,39.05
2023-01-07T11:44:20.396Z,34.85
2023-01-07T11:46:48.166Z,31.33
2023-01-07T11:49:25.191Z,34.20
2023-01-07T11:51:53.175Z,35.20
2023-01-07T11:54:28.429Z,42.97
2023-01-07T11:57:12.340Z,32.53
2023-01-07T11:59:39.296Z,23.80
2023-01-07T12:02:25.292Z,28.42
2023-01-07T12:04:52.264Z,35.47
2023-01-07T12:07:19.787Z,39.28
2023-01-07T12:09:46.916Z,35.88
2023-01-07T12:12:34.327Z,35.65
2023-01-07T12:15:16.971Z,38.22
2023-01-07T12:17:49.079Z,28.70
2023-01-07T12:20:48.961Z,34.22
2023-01-07T12:23:36.540Z,32.55
2023-01-07T12:26:18.223Z,29.50
2023-01-07T12:29:06.597Z,36.30
2023-01-07T12:31:44.378Z,35.55
2023-01-07T12:34:56.708Z,33.92
2023-01-07T12:37:51.456Z,38.75
2023-01-07T12:40:34.736Z,35.00
2023-01-07T12:43:11.240Z,32.22
2023-01-07T12:45:48.044Z,31.52
2023-01-07T12:48:53.823Z,35.63
2023-01-07T12:51:25.814Z,37.92
2023-01-07T12:54:12.960Z,33.75
2023-01-07T12:57:12.283Z,27.77
2023-01-07T12:59:48.215Z,28.90
2023-01-07T13:02:35.744Z,33.15
2023-01-07T13:05:48.656Z,32.17
2023-01-07T13:08:23.587Z,36.38
2023-01-07T13:11:18.611Z,31.88
2023-01-07T13:13:52.399Z,27.08
2023-01-07T13:16:19.352Z,27.08
2023-01-07T13:18:46.531Z,28.02
2023-01-07T13:21:15.396Z,31.95
2023-01-07T13:24:10.867Z,26.65
2023-01-07T13:26:56.051Z,24.35
2023-01-07T13:29:37.909Z,29.63
2023-01-07T13:32:33.596Z,31.63
2023-01-07T13:35:32.809Z,35.22
2023-01-07T13:38:05.609Z,37.28
2023-01-07T13:40:46.444Z,38.92
2023-01-07T13:43:50.972Z,46.72
2023-01-07T13:46:22.452Z,44.85
2023-01-07T13:48:55.022Z,47.95
2023-01-07T13:51:29.844Z,43.67
2023-01-07T13:53:56.932Z,59.65
2023-01-07T13:56:24.200Z,56.80
2023-01-07T13:59:00.746Z,50.65
2023-01-07T14:01:30.112Z,51.90
2023-01-07T14:04:03.563Z,46.38
2023-01-07T14:06:41.928Z,60.47
2023-01-07T14:09:11.081Z,59.80
2023-01-07T14:12:02.967Z,43.25
2023-01-07T14:14:48.119Z,64.97
2023-01-07T14:17:57.223Z,39.80
2023-01-07T14:20:33.266Z,36.90
2023-01-07T14:23:15.662Z,34.78
2023-01-07T14:25:49.061Z,42.80
2023-01-07T14:28:22.769Z,50.38
2023-01-07T14:30:53.550Z,38.58
2023-01-07T14:33:24.206Z,38.70
2023-01-07T14:35:56.349Z,46.40
2023-01-07T14:38:29.562Z,38.03
2023-01-07T14:41:02.599Z,49.53
2023-01-07T14:44:01.158Z,52.00
2023-01-07T14:46:27.996Z,36.58
2023-01-07T14:48:58.175Z,71.05
2023-01-07T14:52:08.023Z,70.13
2023-01-07T14:54:59.718Z,56.70
2023-01-07T14:57:30.464Z,60.87
2023-01-07T15:00:18.465Z,58.00
2023-01-07T15:03:10.220Z,63.03
2023-01-07T15:05:58.726Z,66.97
2023-01-07T15:08:47.586Z,121.53
2023-01-07T15:14:34.741Z,79.47
2023-01-07T15:17:02.446Z,73.03
2023-01-07T15:19:29.727Z,83.23
2023-01-07T15:22:22.749Z,111.10
2023-01-07T15:25:11.455Z,431.23
2023-01-07T15:30:45.634Z,506.73
2023-01-07T15:33:34.308Z,866.08
2023-01-07T15:36:04.612Z,903.42
2023-01-07T15:38:35.726Z,817.70
2023-01-07T15:41:02.990Z,736.20
2023-01-07T15:43:31.789Z,296.57
2023-01-07T15:46:07.577Z,358.63
2023-01-07T15:48:34.758Z,447.40
2023-01-07T15:51:01.619Z,662.53
2023-01-07T15:53:30.211Z,532.03
2023-01-07T15:55:57.175Z,437.60
2023-01-07T15:58:34.450Z,529.83
2023-01-07T16:01:02.727Z,449.27
2023-01-07T16:03:31.211Z,357.65
2023-01-07T16:05:59.833Z,263.63
2023-01-07T16:08:29.007Z,255.95
2023-01-07T16:11:01.964Z,325.88
2023-01-07T16:13:30.507Z,378.13
2023-01-07T16:16:03.327Z,297.10
2023-01-07T16:18:34.239Z,324.47
2023-01-07T16:21:09.273Z,343.93
2023-01-07T16:23:38.619Z,306.33
2023-01-07T16:26:08.452Z,389.95
2023-01-07T16:28:41.584Z,417.27
2023-01-07T16:31:14.063Z,472.40
2023-01-07T16:33:43.192Z,345.13
2023-01-07T16:36:17.885Z,302.90
2023-01-07T16:39:02.103Z,266.23
2023-01-07T16:41:31.467Z,311.37
2023-01-07T16:43:59.969Z,213.50
2023-01-07T16:46:37.216Z,307.63
2023-01-07T16:49:22.826Z,447.67
2023-01-07T16:51:52.527Z,303.67
2023-01-07T16:54:25.490Z,340.27
2023-01-07T16:57:10.708Z,321.47
2023-01-07T16:59:45.893Z,294.23
2023-01-07T17:02:33.935Z,347.37
2023-01-07T17:05:33.840Z,379.67
2023-01-07T17:08:15.009Z,369.83
2023-01-07T17:10:48.018Z,395.87
2023-01-07T17:13:14.846Z,383.03
2023-01-07T17:15:43.471Z,424.33
2023-01-07T17:18:14.724Z,356.17
2023-01-07T17:20:51.358Z,294.60
2023-01-07T17:23:31.921Z,299.73
2023-01-07T17:26:06.439Z,178.80
2023-01-07T17:28:38.983Z,172.63
2023-01-07T17:31:07.098Z,153.67
2023-01-07T17:33:34.128Z,118.53
2023-01-07T17:36:01.297Z,135.23
2023-01-07T17:38:29.036Z,597.23
2023-01-07T17:40:56.601Z,156.33
2023-01-07T17:43:35.075Z,153.37
2023-01-07T17:46:06.248Z,191.57
2023-01-07T17:48:34.860Z,167.90
2023-01-07T17:51:04.572Z,147.68
2023-01-07T17:53:42.613Z,157.33
2023-01-07T17:56:10.095Z,142.10
2023-01-07T17:58:38.875Z,129.13
2023-01-07T18:03:34.540Z,158.07
2023-01-07T18:06:01.961Z,146.13
2023-01-07T18:08:29.051Z,148.27
2023-01-07T18:11:15.140Z,165.07
2023-01-07T18:13:42.340Z,201.13
2023-01-07T18:16:14.546Z,207.20
2023-01-07T18:18:41.528Z,214.43
2023-01-07T18:21:11.469Z,246.53
2023-01-07T18:23:38.716Z,260.67
2023-01-07T18:26:06.754Z,220.27
2023-01-07T18:28:33.700Z,194.53
2023-01-07T18:31:00.956Z,312.80
2023-01-07T18:33:28.635Z,217.07
2023-01-07T18:35:55.887Z,240.93
2023-01-07T18:38:22.761Z,303.80
2023-01-07T18:40:50.041Z,233.90
2023-01-07T18:43:19.216Z,207.83
2023-01-07T18:45:48.277Z,562.33
2023-01-07T18:48:18.231Z,241.60
2023-01-07T18:50:47.985Z,238.00
2023-01-07T18:53:16.007Z,180.73
2023-01-07T18:55:44.025Z,224.32
2023-01-07T18:58:13.933Z,194.90
2023-01-07T19:00:42.103Z,221.90
2023-01-07T19:03:10.928Z,215.73
2023-01-07T19:08:06.184Z,189.83
2023-01-07T19:10:33.464Z,193.73
2023-01-07T19:13:01.135Z,198.33
2023-01-07T19:15:28.398Z,146.07
2023-01-07T19:17:55.891Z,117.87
2023-01-07T19:20:23.135Z,138.70
2023-01-07T19:22:50.045Z,147.40
2023-01-07T19:25:17.228Z,217.13
2023-01-07T19:27:44.118Z,139.47
2023-01-07T19:30:11.908Z,140.87
2023-01-07T19:32:38.842Z,123.43
2023-01-07T19:35:06.473Z,139.47
2023-01-07T19:37:33.374Z,150.20
2023-01-07T19:40:00.571Z,138.73
2023-01-07T19:42:27.498Z,172.57
2023-01-07T19:44:54.646Z,183.47
2023-01-07T19:47:21.754Z,179.03
2023-01-07T19:49:49.033Z,149.27
2023-01-07T19:52:16.044Z,165.00
2023-01-07T19:54:43.684Z,127.00
2023-01-07T19:57:10.727Z,127.57
2023-01-07T19:59:37.909Z,168.30
2023-01-07T20:02:04.991Z,126.00
2023-01-07T20:04:32.236Z,220.37
2023-01-07T20:06:59.207Z,108.20
2023-01-07T20:09:26.598Z,107.77
2023-01-07T20:11:53.448Z,132.40
2023-01-07T20:14:20.655Z,150.10
2023-01-07T20:16:47.568Z,133.23
2023-01-07T20:19:14.830Z,169.97
2023-01-07T20:21:41.882Z,209.30
2023-01-07T20:24:09.415Z,162.73
2023-01-07T20:26:38.314Z,136.13
2023-01-07T20:29:05.615Z,153.57
2023-01-07T20:31:33.155Z,141.20
2023-01-07T20:34:00.838Z,157.90
2023-01-07T20:36:30.589Z,339.57
2023-01-07T20:38:58.344Z,150.13
2023-01-07T20:41:27.264Z,318.00
2023-01-07T20:43:59.916Z,281.07
2023-01-07T20:46:28.488Z,250.13
2023-01-07T20:48:56.460Z,153.65
2023-01-07T20:51:23.952Z,187.87
2023-01-07T20:53:51.387Z,139.67
2023-01-07T20:56:20.993Z,186.63
2023-01-07T20:58:49.359Z,196.43
2023-01-07T21:01:21.813Z,223.33
2023-01-07T21:03:49.969Z,185.90
2023-01-07T21:06:18.809Z,118.57
2023-01-07T21:11:16.135Z,115.30
2023-01-07T21:13:43.577Z,111.47
2023-01-07T21:16:10.733Z,115.67
2023-01-07T21:18:37.957Z,171.47
2023-01-07T21:21:11.067Z,232.20
2023-01-07T21:23:38.710Z,287.63
2023-01-07T21:26:06.978Z,342.73
2023-01-07T21:28:35.682Z,288.50
2023-01-07T21:31:09.198Z,172.20
2023-01-07T21:33:37.890Z,222.57
2023-01-07T21:36:10.005Z,245.48
2023-01-07T21:38:37.463Z,157.50
2023-01-07T21:41:09.180Z,273.53
2023-01-07T21:43:37.082Z,168.10
2023-01-07T21:46:05.886Z,343.57
2023-01-07T21:48:38.044Z,256.75
2023-01-07T21:51:10.858Z,166.33
2023-01-07T21:53:38.193Z,157.10
2023-01-07T21:56:10.150Z,753.37
2023-01-07T21:58:38.337Z,312.53
2023-01-07T22:01:06.789Z,83.90
2023-01-07T22:03:35.600Z,91.57
2023-01-07T22:06:07.222Z,72.40
2023-01-07T22:08:35.532Z,66.70
2023-01-07T22:11:02.641Z,76.17
2023-01-07T22:13:29.726Z,63.27
2023-01-07T22:15:56.607Z,67.13
2023-01-07T22:18:23.938Z,56.87
2023-01-07T22:20:55.781Z,66.73
2023-01-07T22:23:23.247Z,65.97
2023-01-07T22:25:50.216Z,68.47
2023-01-07T22:28:19.463Z,66.63
2023-01-07T22:30:52.581Z,62.17
2023-01-07T22:33:19.929Z,56.30
2023-01-07T22:35:48.130Z,53.57
2023-01-07T22:38:17.152Z,55.05
2023-01-07T22:40:44.046Z,61.20
2023-01-07T22:43:14.811Z,105.07
2023-01-07T22:45:59.011Z,327.87
2023-01-07T22:48:32.302Z,409.90
2023-01-07T22:51:05.530Z,126.83
2023-01-07T22:53:33.116Z,98.90
2023-01-07T22:56:00.755Z,102.37
2023-01-07T22:58:27.990Z,102.60
2023-01-07T23:01:07.285Z,114.33
2023-01-07T23:03:34.734Z,106.87
2023-01-07T23:06:01.807Z,102.17
2023-01-07T23:08:29.356Z,99.10
2023-01-07T23:10:56.280Z,100.27
2023-01-07T23:13:24.036Z,100.60
2023-01-07T23:15:50.909Z,94.97
2023-01-07T23:18:18.169Z,124.57
2023-01-07T23:20:45.036Z,127.47
2023-01-07T23:23:12.466Z,93.37
2023-01-07T23:25:47.422Z,94.23
2023-01-07T23:28:16.840Z,89.70
2023-01-07T23:33:11.565Z,80.10
2023-01-07T23:35:38.526Z,67.53
2023-01-07T23:38:06.079Z,80.60
2023-01-07T23:40:33.054Z,84.03
2023-01-07T23:43:00.268Z,67.83
2023-01-07T23:45:27.129Z,54.37
2023-01-07T23:47:54.333Z,50.80
2023-01-07T23:50:21.218Z,54.43
2023-01-07T23:52:48.423Z,57.30
2023-01-07T23:55:15.334Z,62.17
2023-01-07T23:57:42.523Z,83.13
